Time,TemperatureF,DewpointF,PressureIn,WindDirection,WindDirectionDegrees,WindSpeedMPH,WindSpeedGustMPH,Humidity,HourlyPrecipIn,Conditions,Clouds,dailyrainin,SoftwareType,DateUTC
2013-02-25 18:20:00,33.5,26.4,30.29,East,82,0.0,0.0,75,0.00,,,0.01,Wunderground v.1.15,2013-02-25 23:20:00,
2013-02-25 18:25:00,33.4,26.6,30.29,East,82,0.0,0.0,76,0.00,,,0.01,Wunderground v.1.15,2013-02-25 23:25:00,
2013-02-25 18:30:00,33.2,26.8,30.29,East,82,0.0,0.0,77,0.00,,,0.01,Wunderground v.1.15,2013-02-25 23:30:00,
2013-02-25 18:35:00,32.9,26.5,30.29,East,82,0.0,0.0,77,0.00,,,0.01,Wunderground v.1.15,2013-02-25 23:35:00,
2013-02-25 18:40:00,32.7,26.3,30.30,East,82,0.0,0.0,77,0.00,,,0.01,Wunderground v.1.15,2013-02-25 23:40:00,
2013-02-25 18:45:00,32.6,26.2,30.30,East,82,0.0,0.0,77,0.00,,,0.01,Wunderground v.1.15,2013-02-25 23:45:00,
2013-02-25 18:50:00,32.6,26.2,30.30,East,82,0.0,0.0,77,0.00,,,0.01,Wunderground v.1.15,2013-02-25 23:50:00,
2013-02-25 18:55:00,32.6,26.2,30.30,East,82,0.0,0.0,77,0.00,,,0.01,Wunderground v.1.15,2013-02-25 23:55:00,
2013-02-25 19:00:00,32.6,26.2,30.30,East,82,0.0,0.0,77,0.00,,,0.01,Wunderground v.1.15,2013-02-26 00:00:00,
2013-02-25 19:05:00,32.5,26.4,30.30,East,82,0.0,3.0,78,0.00,,,0.01,Wunderground v.1.15,2013-02-26 00:05:00,
2013-02-25 19:10:00,32.3,26.2,30.30,East,82,0.0,3.0,78,0.00,,,0.01,Wunderground v.1.15,2013-02-26 00:10:00,
2013-02-25 19:15:00,32.1,25.7,30.30,East,82,0.0,3.0,77,0.00,,,0.01,Wunderground v.1.15,2013-02-26 00:15:00,
2013-02-25 19:20:00,32.0,25.9,30.30,East,82,0.0,3.0,78,0.00,,,0.01,Wunderground v.1.15,2013-02-26 00:20:00,
2013-02-25 19:25:00,31.8,26.3,30.30,SSW,200,0.0,3.0,80,0.00,,,0.01,Wunderground v.1.15,2013-02-26 00:25:00,
2013-02-25 19:30:00,31.7,26.5,30.30,SSW,200,0.0,3.0,81,0.00,,,0.01,Wunderground v.1.15,2013-02-26 00:30:00,
2013-02-25 19:35:00,31.5,26.3,30.31,SSW,200,0.0,3.0,81,0.00,,,0.01,Wunderground v.1.15,2013-02-26 00:35:00,
2013-02-25 19:40:00,31.2,25.7,30.31,SSW,200,0.0,3.0,80,0.00,,,0.01,Wunderground v.1.15,2013-02-26 00:40:00,
2013-02-25 19:45:00,30.9,25.8,30.30,South,189,0.0,3.0,81,0.00,,,0.01,Wunderground v.1.15,2013-02-26 00:45:00,
2013-02-25 19:50:00,30.9,26.1,30.30,ESE,121,0.0,3.0,82,0.00,,,0.01,Wunderground v.1.15,2013-02-26 00:50:00,
2013-02-25 19:55:00,30.8,25.7,30.30,ESE,122,0.0,3.0,81,0.00,,,0.01,Wunderground v.1.15,2013-02-26 00:55:00,
2013-02-25 20:00:00,30.6,25.5,30.31,ESE,122,0.0,3.0,81,0.00,,,0.01,Wunderground v.1.15,2013-02-26 01:00:00,
2013-02-25 20:05:00,30.4,25.3,30.30,ESE,121,0.0,3.0,81,0.00,,,0.01,Wunderground v.1.15,2013-02-26 01:05:00,
2013-02-25 20:10:00,30.1,25.0,30.31,ESE,121,0.0,3.0,81,0.00,,,0.01,Wunderground v.1.15,2013-02-26 01:10:00,
2013-02-25 20:15:00,29.7,24.9,30.31,ESE,122,0.0,3.0,82,0.00,,,0.01,Wunderground v.1.15,2013-02-26 01:15:00,
2013-02-25 20:20:00,29.3,24.5,30.30,ESE,121,0.0,3.0,82,0.00,,,0.01,Wunderground v.1.15,2013-02-26 01:20:00,
2013-02-25 20:25:00,28.8,24.0,30.31,ESE,121,0.0,3.0,82,0.00,,,0.01,Wunderground v.1.15,2013-02-26 01:25:00,
2013-02-25 20:30:00,28.6,24.4,30.31,NNE,12,0.0,3.0,84,0.00,,,0.01,Wunderground v.1.15,2013-02-26 01:30:00,
2013-02-25 20:35:00,28.7,24.8,30.30,NNE,12,0.0,3.0,85,0.00,,,0.01,Wunderground v.1.15,2013-02-26 01:35:00,
2013-02-25 20:40:00,28.5,24.3,30.30,NNE,12,0.0,3.0,84,0.00,,,0.01,Wunderground v.1.15,2013-02-26 01:40:00,
2013-02-25 20:45:00,28.2,24.0,30.31,NNE,12,0.0,3.0,84,0.00,,,0.01,Wunderground v.1.15,2013-02-26 01:45:00,
2013-02-25 20:50:00,27.8,23.6,30.31,NNE,12,0.0,3.0,84,0.00,,,0.01,Wunderground v.1.15,2013-02-26 01:50:00,
2013-02-25 20:55:00,27.6,23.7,30.31,NNE,12,0.0,3.0,85,0.00,,,0.01,Wunderground v.1.15,2013-02-26 01:55:00,
2013-02-25 21:00:00,27.3,23.4,30.31,NNE,12,0.0,3.0,85,0.00,,,0.01,Wunderground v.1.15,2013-02-26 02:00:00,
2013-02-25 21:05:00,26.9,23.3,30.31,NNE,12,0.0,3.0,86,0.00,,,0.01,Wunderground v.1.15,2013-02-26 02:05:00,
2013-02-25 21:10:00,26.8,23.4,30.31,NNE,12,0.0,3.0,87,0.00,,,0.01,Wunderground v.1.15,2013-02-26 02:10:00,
2013-02-25 21:15:00,26.9,23.8,30.31,SW,217,0.0,3.0,88,0.00,,,0.01,Wunderground v.1.15,2013-02-26 02:15:00,
2013-02-25 21:20:00,26.7,23.6,30.31,SSW,212,0.0,3.0,88,0.00,,,0.01,Wunderground v.1.15,2013-02-26 02:20:00,
2013-02-25 21:25:00,26.9,23.8,30.31,SSW,210,0.0,3.0,88,0.00,,,0.01,Wunderground v.1.15,2013-02-26 02:25:00,
2013-02-25 21:30:00,27.0,23.9,30.31,SSW,208,0.0,3.0,88,0.00,,,0.01,Wunderground v.1.15,2013-02-26 02:30:00,
2013-02-25 21:35:00,26.8,23.4,30.31,SE,132,0.0,3.0,87,0.00,,,0.01,Wunderground v.1.15,2013-02-26 02:35:00,
2013-02-25 21:40:00,26.7,23.4,30.31,SE,132,0.0,3.0,87,0.00,,,0.01,Wunderground v.1.15,2013-02-26 02:40:00,
2013-02-25 21:45:00,26.6,23.5,30.31,SE,132,0.0,3.0,88,0.00,,,0.01,Wunderground v.1.15,2013-02-26 02:45:00,
2013-02-25 21:50:00,26.4,23.1,30.31,SE,132,0.0,3.0,87,0.00,,,0.01,Wunderground v.1.15,2013-02-26 02:50:00,
2013-02-25 21:55:00,26.3,23.0,30.32,ENE,77,0.0,3.0,87,0.00,,,0.01,Wunderground v.1.15,2013-02-26 02:55:00,
2013-02-25 22:00:00,26.6,23.0,30.32,East,96,1.0,3.0,86,0.00,,,0.01,Wunderground v.1.15,2013-02-26 03:00:00,
2013-02-25 22:05:00,26.5,22.6,30.32,East,96,0.0,3.0,85,0.00,,,0.01,Wunderground v.1.15,2013-02-26 03:05:00,
2013-02-25 22:10:00,26.0,22.4,30.32,NW,305,0.0,3.0,86,0.00,,,0.01,Wunderground v.1.15,2013-02-26 03:10:00,
2013-02-25 22:15:00,25.8,22.7,30.32,NW,305,0.0,3.0,88,0.00,,,0.01,Wunderground v.1.15,2013-02-26 03:15:00,
2013-02-25 22:20:00,25.7,22.6,30.32,NW,305,0.0,3.0,88,0.00,,,0.01,Wunderground v.1.15,2013-02-26 03:20:00,
2013-02-25 22:25:00,25.2,22.1,30.32,East,97,0.0,3.0,88,0.00,,,0.01,Wunderground v.1.15,2013-02-26 03:25:00,
2013-02-25 22:30:00,25.2,22.1,30.32,East,97,0.0,3.0,88,0.00,,,0.01,Wunderground v.1.15,2013-02-26 03:30:00,
2013-02-25 22:35:00,25.3,22.5,30.32,East,97,0.0,3.0,89,0.00,,,0.01,Wunderground v.1.15,2013-02-26 03:35:00,
2013-02-25 22:40:00,25.1,21.8,30.32,East,98,0.0,3.0,87,0.00,,,0.01,Wunderground v.1.15,2013-02-26 03:40:00,
2013-02-25 22:45:00,25.0,21.7,30.32,East,97,0.0,3.0,87,0.00,,,0.01,Wunderground v.1.15,2013-02-26 03:45:00,
2013-02-25 22:50:00,24.6,21.0,30.32,East,97,0.0,3.0,86,0.00,,,0.01,Wunderground v.1.15,2013-02-26 03:50:00,
2013-02-25 22:55:00,24.4,20.8,30.32,East,98,0.0,3.0,86,0.00,,,0.01,Wunderground v.1.15,2013-02-26 03:55:00,
2013-02-25 23:00:00,24.2,20.9,30.32,East,97,0.0,3.0,87,0.00,,,0.01,Wunderground v.1.15,2013-02-26 04:00:00,
2013-02-25 23:05:00,24.0,20.7,30.32,East,98,0.0,3.0,87,0.00,,,0.01,Wunderground v.1.15,2013-02-26 04:05:00,
2013-02-25 23:10:00,23.8,20.5,30.32,East,97,0.0,3.0,87,0.00,,,0.01,Wunderground v.1.15,2013-02-26 04:10:00,
2013-02-25 23:15:00,23.6,20.6,30.31,East,97,0.0,3.0,88,0.00,,,0.01,Wunderground v.1.15,2013-02-26 04:15:00,
2013-02-25 23:20:00,23.6,20.8,30.31,East,98,0.0,3.0,89,0.00,,,0.01,Wunderground v.1.15,2013-02-26 04:20:00,
2013-02-25 23:25:00,23.3,20.5,30.32,East,98,0.0,3.0,89,0.00,,,0.01,Wunderground v.1.15,2013-02-26 04:25:00,
2013-02-25 23:30:00,23.0,20.2,30.31,East,97,0.0,3.0,89,0.00,,,0.01,Wunderground v.1.15,2013-02-26 04:30:00,
2013-02-25 23:35:00,22.9,20.1,30.31,East,98,0.0,3.0,89,0.00,,,0.01,Wunderground v.1.15,2013-02-26 04:35:00,
2013-02-25 23:40:00,22.8,20.3,30.31,East,97,0.0,3.0,90,0.00,,,0.01,Wunderground v.1.15,2013-02-26 04:40:00,
2013-02-25 23:45:00,22.7,20.2,30.31,East,97,0.0,3.0,90,0.00,,,0.01,Wunderground v.1.15,2013-02-26 04:45:00,
2013-02-25 23:50:00,22.4,19.9,30.30,East,97,0.0,3.0,90,0.00,,,0.01,Wunderground v.1.15,2013-02-26 04:50:00,
2013-02-25 23:55:00,22.1,19.4,30.30,East,98,0.0,3.0,89,0.00,,,0.01,Wunderground v.1.15,2013-02-26 04:55:00,